QFA595 YBCG-YSSY
Flight info
| Callsign | QFA595 |
|---|---|
| Flight time | 1h 14m |
| Altitude | 38000 |
| Route | GOMOL Q16 APAGI H91 IGDAM H652 BOREE |
| Aircraft | B738/M-SDE2E3FGHIRWXY/LB1 |
Departure
| Time | 2026-04-22 16:21 |
|---|---|
| Airport | Gold Coast Airport (YBCG) |
Arrival
| Time | 2026-04-22 17:35 |
|---|---|
| Airport | Sydney Kingsford Smith International Airport (YSSY) |
| Time | Latitude | Longitude | Altitude | Speed | Heading |
|---|---|---|---|---|---|
| 2026-04-22 15:54 | -28.16707 | 153.51198 | 22 ft | 0 kts | 60° |
| 2026-04-22 16:11 | -28.16708 | 153.51196 | 22 ft | 0 kts | 60° |
| 2026-04-22 16:12 | -28.16713 | 153.51186 | 22 ft | 2 kts | 60° |
| 2026-04-22 16:12 | -28.16721 | 153.51170 | 21 ft | 2 kts | 60° |
| 2026-04-22 16:12 | -28.16728 | 153.51155 | 21 ft | 2 kts | 60° |
| 2026-04-22 16:12 | -28.16735 | 153.51141 | 21 ft | 2 kts | 60° |
| 2026-04-22 16:13 | -28.16740 | 153.51131 | 21 ft | 2 kts | 60° |
| 2026-04-22 16:13 | -28.16750 | 153.51119 | 21 ft | 2 kts | 32° |
| 2026-04-22 16:13 | -28.16764 | 153.51111 | 21 ft | 2 kts | 11° |
| 2026-04-22 16:13 | -28.16779 | 153.51111 | 21 ft | 2 kts | 349° |
| 2026-04-22 16:14 | -28.16786 | 153.51112 | 21 ft | 1 kts | 338° |
| 2026-04-22 16:14 | -28.16789 | 153.51114 | 21 ft | 0 kts | 341° |
| 2026-04-22 16:15 | -28.16788 | 153.51114 | 21 ft | 0 kts | 337° |
| 2026-04-22 16:16 | -28.16767 | 153.51102 | 21 ft | 5 kts | 330° |
| 2026-04-22 16:16 | -28.16727 | 153.51076 | 21 ft | 7 kts | 330° |
| 2026-04-22 16:16 | -28.16688 | 153.51051 | 21 ft | 5 kts | 330° |
| 2026-04-22 16:16 | -28.16647 | 153.51025 | 22 ft | 9 kts | 330° |
| 2026-04-22 16:17 | -28.16599 | 153.50995 | 22 ft | 5 kts | 329° |
| 2026-04-22 16:17 | -28.16568 | 153.50974 | 23 ft | 7 kts | 329° |
| 2026-04-22 16:17 | -28.16518 | 153.50941 | 23 ft | 6 kts | 330° |
| 2026-04-22 16:17 | -28.16490 | 153.50876 | 22 ft | 13 kts | 256° |
| 2026-04-22 16:18 | -28.16443 | 153.50789 | 22 ft | 15 kts | 330° |
| 2026-04-22 16:18 | -28.16356 | 153.50735 | 24 ft | 13 kts | 330° |
| 2026-04-22 16:18 | -28.16238 | 153.50659 | 24 ft | 22 kts | 330° |
| 2026-04-22 16:18 | -28.16111 | 153.50578 | 24 ft | 20 kts | 330° |
| 2026-04-22 16:19 | -28.15991 | 153.50501 | 24 ft | 18 kts | 329° |
| 2026-04-22 16:19 | -28.15885 | 153.50435 | 25 ft | 17 kts | 332° |
| 2026-04-22 16:19 | -28.15764 | 153.50357 | 26 ft | 19 kts | 330° |
| 2026-04-22 16:19 | -28.15654 | 153.50290 | 27 ft | 16 kts | 332° |
| 2026-04-22 16:20 | -28.15608 | 153.50203 | 28 ft | 12 kts | 264° |
| 2026-04-22 16:20 | -28.15640 | 153.50128 | 28 ft | 9 kts | 225° |
| 2026-04-22 16:20 | -28.15736 | 153.50125 | 25 ft | 23 kts | 151° |
| 2026-04-22 16:20 | -28.16035 | 153.50316 | 25 ft | 83 kts | 151° |
| 2026-04-22 16:21 | -28.16740 | 153.50763 | 22 ft | 144 kts | 150° |
| 2026-04-22 16:21 | -28.17689 | 153.51376 | 444 ft | 158 kts | 152° |
| 2026-04-22 16:21 | -28.18575 | 153.51964 | 1334 ft | 145 kts | 151° |
| 2026-04-22 16:21 | -28.19437 | 153.52507 | 2011 ft | 146 kts | 160° |
| 2026-04-22 16:22 | -28.21543 | 153.51848 | 2868 ft | 197 kts | 222° |
| 2026-04-22 16:22 | -28.22361 | 153.50525 | 3415 ft | 215 kts | 232° |
| 2026-04-22 16:22 | -28.23205 | 153.49034 | 3898 ft | 235 kts | 230° |
| 2026-04-22 16:23 | -28.25301 | 153.45985 | 5252 ft | 255 kts | 226° |
| 2026-04-22 16:23 | -28.26447 | 153.44415 | 5999 ft | 263 kts | 226° |
| 2026-04-22 16:23 | -28.27617 | 153.42770 | 6784 ft | 270 kts | 228° |
| 2026-04-22 16:24 | -28.28751 | 153.41097 | 7691 ft | 272 kts | 229° |
| 2026-04-22 16:24 | -28.31091 | 153.37663 | 9389 ft | 281 kts | 229° |
| 2026-04-22 16:24 | -28.32290 | 153.35919 | 10261 ft | 284 kts | 229° |
| 2026-04-22 16:25 | -28.33528 | 153.34122 | 10951 ft | 296 kts | 229° |
| 2026-04-22 16:25 | -28.35390 | 153.31416 | 11775 ft | 317 kts | 230° |
| 2026-04-22 16:25 | -28.36785 | 153.29384 | 12291 ft | 333 kts | 230° |
| 2026-04-22 16:26 | -28.38242 | 153.27260 | 12939 ft | 345 kts | 230° |
| 2026-04-22 16:26 | -28.39710 | 153.25113 | 13823 ft | 348 kts | 230° |
| 2026-04-22 16:26 | -28.41180 | 153.22961 | 14764 ft | 350 kts | 230° |
| 2026-04-22 16:26 | -28.42671 | 153.20778 | 15666 ft | 353 kts | 230° |
| 2026-04-22 16:27 | -28.44186 | 153.18559 | 16532 ft | 356 kts | 230° |
| 2026-04-22 16:27 | -28.45702 | 153.16341 | 17375 ft | 359 kts | 230° |
| 2026-04-22 16:27 | -28.47241 | 153.14085 | 18212 ft | 361 kts | 230° |
| 2026-04-22 16:27 | -28.48762 | 153.11856 | 19034 ft | 363 kts | 231° |
| 2026-04-22 16:28 | -28.50326 | 153.09563 | 19770 ft | 368 kts | 231° |
| 2026-04-22 16:28 | -28.51904 | 153.07250 | 20529 ft | 371 kts | 231° |
| 2026-04-22 16:28 | -28.53465 | 153.04959 | 21276 ft | 373 kts | 231° |
| 2026-04-22 16:28 | -28.55054 | 153.02628 | 22020 ft | 374 kts | 231° |
| 2026-04-22 16:29 | -28.56651 | 153.00281 | 22668 ft | 378 kts | 232° |
| 2026-04-22 16:29 | -28.58266 | 152.97906 | 23370 ft | 380 kts | 232° |
| 2026-04-22 16:29 | -28.59895 | 152.95511 | 23947 ft | 384 kts | 232° |
| 2026-04-22 16:29 | -28.61528 | 152.93108 | 24567 ft | 387 kts | 232° |
| 2026-04-22 16:30 | -28.62622 | 152.91496 | 24990 ft | 389 kts | 232° |
| 2026-04-22 16:30 | -28.64841 | 152.88226 | 25795 ft | 393 kts | 232° |
| 2026-04-22 16:30 | -28.66527 | 152.85742 | 26374 ft | 396 kts | 232° |
| 2026-04-22 16:30 | -28.68219 | 152.83246 | 26970 ft | 398 kts | 232° |
| 2026-04-22 16:31 | -28.69903 | 152.80759 | 27445 ft | 403 kts | 232° |
| 2026-04-22 16:31 | -28.71622 | 152.78220 | 28027 ft | 405 kts | 233° |
| 2026-04-22 16:31 | -28.73363 | 152.75645 | 28518 ft | 409 kts | 233° |
| 2026-04-22 16:31 | -28.75099 | 152.73079 | 29037 ft | 411 kts | 233° |
| 2026-04-22 16:32 | -28.76840 | 152.70503 | 29528 ft | 414 kts | 233° |
| 2026-04-22 16:32 | -28.78599 | 152.67897 | 30057 ft | 416 kts | 233° |
| 2026-04-22 16:32 | -28.80363 | 152.65283 | 30516 ft | 419 kts | 233° |
| 2026-04-22 16:32 | -28.82184 | 152.62646 | 30964 ft | 422 kts | 231° |
| 2026-04-22 16:33 | -28.84137 | 152.60175 | 31439 ft | 425 kts | 226° |
| 2026-04-22 16:33 | -28.86352 | 152.57942 | 32199 ft | 422 kts | 220° |
| 2026-04-22 16:33 | -28.88749 | 152.56038 | 32812 ft | 422 kts | 214° |
| 2026-04-22 16:33 | -28.91363 | 152.54439 | 33364 ft | 425 kts | 208° |
| 2026-04-22 16:34 | -28.94110 | 152.53186 | 33851 ft | 428 kts | 202° |
| 2026-04-22 16:34 | -28.96962 | 152.52135 | 34421 ft | 427 kts | 201° |
| 2026-04-22 16:34 | -28.99787 | 152.51144 | 34987 ft | 424 kts | 201° |
| 2026-04-22 16:34 | -29.02633 | 152.50111 | 35443 ft | 424 kts | 202° |
| 2026-04-22 16:35 | -29.05432 | 152.49028 | 35953 ft | 421 kts | 204° |
| 2026-04-22 16:35 | -29.08194 | 152.47899 | 36447 ft | 419 kts | 204° |
| 2026-04-22 16:35 | -29.10939 | 152.46727 | 36852 ft | 418 kts | 205° |
| 2026-04-22 16:35 | -29.13659 | 152.45532 | 37224 ft | 419 kts | 206° |
| 2026-04-22 16:36 | -29.16371 | 152.44321 | 37589 ft | 419 kts | 206° |
| 2026-04-22 16:36 | -29.19090 | 152.43097 | 38044 ft | 417 kts | 206° |
| 2026-04-22 16:36 | -29.21825 | 152.41859 | 38261 ft | 419 kts | 206° |
| 2026-04-22 16:36 | -29.24518 | 152.40637 | 38271 ft | 419 kts | 206° |
| 2026-04-22 16:37 | -29.29932 | 152.38179 | 38274 ft | 416 kts | 206° |
| 2026-04-22 16:37 | -29.35301 | 152.35738 | 38281 ft | 417 kts | 206° |
| 2026-04-22 16:38 | -29.40706 | 152.33273 | 38154 ft | 416 kts | 207° |
| 2026-04-22 16:38 | -29.43420 | 152.32036 | 38279 ft | 417 kts | 207° |
| 2026-04-22 16:38 | -29.46111 | 152.30808 | 38392 ft | 420 kts | 207° |
| 2026-04-22 16:39 | -29.48838 | 152.29565 | 38274 ft | 417 kts | 206° |
| 2026-04-22 16:39 | -29.51530 | 152.28340 | 38286 ft | 418 kts | 206° |
| 2026-04-22 16:39 | -29.56982 | 152.25853 | 38298 ft | 417 kts | 206° |
| 2026-04-22 16:40 | -29.62360 | 152.23398 | 38304 ft | 418 kts | 206° |
| 2026-04-22 16:41 | -29.70470 | 152.19690 | 38319 ft | 418 kts | 206° |
| 2026-04-22 16:41 | -29.75911 | 152.17198 | 38324 ft | 418 kts | 206° |
| 2026-04-22 16:42 | -29.81348 | 152.14705 | 38302 ft | 417 kts | 206° |
| 2026-04-22 16:42 | -29.86765 | 152.12216 | 38302 ft | 419 kts | 206° |
| 2026-04-22 16:43 | -29.92208 | 152.09712 | 38314 ft | 418 kts | 206° |
| 2026-04-22 16:43 | -29.97613 | 152.07227 | 38296 ft | 417 kts | 205° |
| 2026-04-22 16:44 | -30.03076 | 152.04709 | 38275 ft | 419 kts | 205° |
| 2026-04-22 16:44 | -30.08505 | 152.02205 | 38286 ft | 419 kts | 205° |
| 2026-04-22 16:45 | -30.13937 | 151.99696 | 38287 ft | 419 kts | 205° |
| 2026-04-22 16:45 | -30.19342 | 151.97197 | 38288 ft | 419 kts | 205° |
| 2026-04-22 16:46 | -30.24740 | 151.94698 | 38287 ft | 419 kts | 205° |
| 2026-04-22 16:46 | -30.30166 | 151.92181 | 38295 ft | 418 kts | 205° |
| 2026-04-22 16:47 | -30.35473 | 151.89719 | 38295 ft | 417 kts | 205° |
| 2026-04-22 16:47 | -30.40008 | 151.87611 | 38292 ft | 418 kts | 205° |
| 2026-04-22 16:48 | -30.46263 | 151.84701 | 38298 ft | 418 kts | 205° |
| 2026-04-22 16:48 | -30.51724 | 151.82159 | 38299 ft | 418 kts | 205° |
| 2026-04-22 16:49 | -30.57112 | 151.79646 | 38300 ft | 419 kts | 205° |
| 2026-04-22 16:49 | -30.62533 | 151.77115 | 38300 ft | 419 kts | 204° |
| 2026-04-22 16:50 | -30.67954 | 151.74580 | 38306 ft | 418 kts | 204° |
| 2026-04-22 16:50 | -30.73349 | 151.72054 | 38304 ft | 419 kts | 204° |
| 2026-04-22 16:51 | -30.78768 | 151.69514 | 38309 ft | 418 kts | 204° |
| 2026-04-22 16:51 | -30.84186 | 151.66974 | 38304 ft | 418 kts | 204° |
| 2026-04-22 16:52 | -30.89610 | 151.64426 | 38309 ft | 419 kts | 204° |
| 2026-04-22 16:52 | -30.94107 | 151.62312 | 38320 ft | 419 kts | 204° |
| 2026-04-22 16:53 | -31.00433 | 151.59334 | 38315 ft | 420 kts | 204° |
| 2026-04-22 16:53 | -31.05842 | 151.56784 | 38313 ft | 419 kts | 204° |
| 2026-04-22 16:54 | -31.11271 | 151.54221 | 38310 ft | 418 kts | 204° |
| 2026-04-22 16:54 | -31.16654 | 151.51675 | 38307 ft | 418 kts | 204° |
| 2026-04-22 16:55 | -31.22034 | 151.49129 | 38307 ft | 418 kts | 204° |
| 2026-04-22 16:55 | -31.27449 | 151.46564 | 38303 ft | 418 kts | 204° |
| 2026-04-22 16:56 | -31.32812 | 151.44020 | 38306 ft | 418 kts | 204° |
| 2026-04-22 16:56 | -31.38227 | 151.41449 | 38310 ft | 418 kts | 204° |
| 2026-04-22 16:57 | -31.43622 | 151.38966 | 38315 ft | 419 kts | 202° |
| 2026-04-22 16:57 | -31.49079 | 151.36551 | 38314 ft | 417 kts | 202° |
| 2026-04-22 16:58 | -31.53631 | 151.34537 | 38312 ft | 417 kts | 202° |
| 2026-04-22 16:58 | -31.59975 | 151.31714 | 38307 ft | 417 kts | 202° |
| 2026-04-22 16:59 | -31.65385 | 151.29292 | 38308 ft | 417 kts | 202° |
| 2026-04-22 16:59 | -31.70828 | 151.26851 | 38310 ft | 417 kts | 202° |
| 2026-04-22 17:00 | -31.76250 | 151.24416 | 38307 ft | 417 kts | 202° |
| 2026-04-22 17:00 | -31.84418 | 151.20741 | 38307 ft | 417 kts | 202° |
| 2026-04-22 17:01 | -31.89849 | 151.18294 | 38309 ft | 417 kts | 202° |
| 2026-04-22 17:01 | -31.95260 | 151.15854 | 38307 ft | 416 kts | 202° |
| 2026-04-22 17:02 | -32.00647 | 151.13435 | 38315 ft | 415 kts | 202° |
| 2026-04-22 17:02 | -32.06079 | 151.11003 | 38316 ft | 414 kts | 202° |
| 2026-04-22 17:03 | -32.11433 | 151.08601 | 38319 ft | 415 kts | 202° |
| 2026-04-22 17:03 | -32.16842 | 151.06171 | 38317 ft | 415 kts | 202° |
| 2026-04-22 17:04 | -32.22276 | 151.03725 | 38316 ft | 415 kts | 202° |
| 2026-04-22 17:04 | -32.27744 | 151.01260 | 38322 ft | 416 kts | 202° |
| 2026-04-22 17:05 | -32.33146 | 150.98822 | 38150 ft | 411 kts | 202° |
| 2026-04-22 17:05 | -32.35797 | 150.97626 | 37200 ft | 409 kts | 201° |
| 2026-04-22 17:05 | -32.38456 | 150.96423 | 35852 ft | 416 kts | 201° |
| 2026-04-22 17:06 | -32.41211 | 150.95177 | 35052 ft | 417 kts | 201° |
| 2026-04-22 17:06 | -32.43921 | 150.93950 | 34458 ft | 415 kts | 201° |
| 2026-04-22 17:06 | -32.46642 | 150.92801 | 33742 ft | 414 kts | 198° |
| 2026-04-22 17:06 | -32.49416 | 150.91985 | 32991 ft | 414 kts | 189° |
| 2026-04-22 17:07 | -32.52301 | 150.91779 | 32242 ft | 414 kts | 179° |
| 2026-04-22 17:07 | -32.55188 | 150.92040 | 31477 ft | 414 kts | 174° |
| 2026-04-22 17:07 | -32.58048 | 150.92490 | 30830 ft | 411 kts | 172° |
| 2026-04-22 17:07 | -32.60862 | 150.93008 | 30289 ft | 405 kts | 171° |
| 2026-04-22 17:08 | -32.63617 | 150.93538 | 29714 ft | 399 kts | 171° |
| 2026-04-22 17:08 | -32.66361 | 150.94066 | 29140 ft | 395 kts | 171° |
| 2026-04-22 17:08 | -32.69051 | 150.94575 | 28568 ft | 390 kts | 171° |
| 2026-04-22 17:08 | -32.71717 | 150.95071 | 28013 ft | 385 kts | 171° |
| 2026-04-22 17:09 | -32.74355 | 150.95554 | 27442 ft | 381 kts | 171° |
| 2026-04-22 17:09 | -32.76954 | 150.96024 | 26883 ft | 377 kts | 171° |
| 2026-04-22 17:09 | -32.78699 | 150.96336 | 26514 ft | 374 kts | 171° |
| 2026-04-22 17:09 | -32.82185 | 150.96960 | 25769 ft | 383 kts | 170° |
| 2026-04-22 17:10 | -32.84912 | 150.97449 | 25173 ft | 392 kts | 170° |
| 2026-04-22 17:10 | -32.87603 | 150.97928 | 24588 ft | 388 kts | 170° |
| 2026-04-22 17:10 | -32.90264 | 150.98402 | 24014 ft | 384 kts | 170° |
| 2026-04-22 17:10 | -32.92886 | 150.98868 | 23434 ft | 380 kts | 169° |
| 2026-04-22 17:11 | -32.95506 | 150.99333 | 22846 ft | 375 kts | 169° |
| 2026-04-22 17:11 | -32.98069 | 150.99789 | 22285 ft | 371 kts | 169° |
| 2026-04-22 17:11 | -33.00648 | 151.00250 | 21713 ft | 367 kts | 169° |
| 2026-04-22 17:11 | -33.03141 | 151.00694 | 21161 ft | 363 kts | 169° |
| 2026-04-22 17:12 | -33.05644 | 151.01143 | 20598 ft | 359 kts | 169° |
| 2026-04-22 17:12 | -33.08121 | 151.01585 | 20043 ft | 356 kts | 169° |
| 2026-04-22 17:12 | -33.10567 | 151.02023 | 19494 ft | 352 kts | 169° |
| 2026-04-22 17:12 | -33.13007 | 151.02461 | 18947 ft | 348 kts | 169° |
| 2026-04-22 17:13 | -33.15444 | 151.02899 | 18385 ft | 345 kts | 169° |
| 2026-04-22 17:13 | -33.17828 | 151.03326 | 17851 ft | 341 kts | 168° |
| 2026-04-22 17:13 | -33.20186 | 151.03751 | 17309 ft | 338 kts | 168° |
| 2026-04-22 17:13 | -33.22502 | 151.04167 | 16789 ft | 335 kts | 168° |
| 2026-04-22 17:14 | -33.24822 | 151.04588 | 16248 ft | 333 kts | 168° |
| 2026-04-22 17:14 | -33.27125 | 151.05023 | 15722 ft | 330 kts | 168° |
| 2026-04-22 17:14 | -33.29393 | 151.05461 | 15197 ft | 328 kts | 167° |
| 2026-04-22 17:14 | -33.31650 | 151.05899 | 14664 ft | 326 kts | 167° |
| 2026-04-22 17:15 | -33.32408 | 151.06047 | 14489 ft | 326 kts | 167° |
| 2026-04-22 17:15 | -33.36129 | 151.06766 | 13628 ft | 323 kts | 167° |
| 2026-04-22 17:15 | -33.38361 | 151.07194 | 13103 ft | 321 kts | 167° |
| 2026-04-22 17:15 | -33.40562 | 151.07617 | 12568 ft | 319 kts | 167° |
| 2026-04-22 17:16 | -33.42757 | 151.08040 | 12060 ft | 317 kts | 167° |
| 2026-04-22 17:16 | -33.44927 | 151.08456 | 11543 ft | 315 kts | 167° |
| 2026-04-22 17:16 | -33.47098 | 151.08873 | 11019 ft | 313 kts | 167° |
| 2026-04-22 17:16 | -33.49272 | 151.09293 | 10354 ft | 316 kts | 167° |
| 2026-04-22 17:17 | -33.51420 | 151.09705 | 10100 ft | 305 kts | 167° |
| 2026-04-22 17:17 | -33.53475 | 151.10095 | 10052 ft | 287 kts | 167° |
| 2026-04-22 17:17 | -33.55416 | 151.10466 | 9963 ft | 273 kts | 167° |
| 2026-04-22 17:17 | -33.57274 | 151.10823 | 9934 ft | 266 kts | 167° |
| 2026-04-22 17:18 | -33.59112 | 151.11183 | 9906 ft | 269 kts | 167° |
| 2026-04-22 17:18 | -33.60994 | 151.11551 | 9619 ft | 270 kts | 167° |
| 2026-04-22 17:18 | -33.62820 | 151.11908 | 9276 ft | 267 kts | 167° |
| 2026-04-22 17:18 | -33.64650 | 151.12268 | 9031 ft | 262 kts | 167° |
| 2026-04-22 17:19 | -33.68279 | 151.12988 | 8857 ft | 263 kts | 167° |
| 2026-04-22 17:19 | -33.71890 | 151.13699 | 8648 ft | 262 kts | 167° |
| 2026-04-22 17:20 | -33.75508 | 151.14398 | 8430 ft | 261 kts | 167° |
| 2026-04-22 17:20 | -33.79108 | 151.15096 | 8199 ft | 260 kts | 167° |
| 2026-04-22 17:21 | -33.80901 | 151.15382 | 8088 ft | 262 kts | 173° |
| 2026-04-22 17:21 | -33.84534 | 151.14664 | 7724 ft | 266 kts | 192° |
| 2026-04-22 17:22 | -33.88124 | 151.13470 | 7323 ft | 264 kts | 190° |
| 2026-04-22 17:22 | -33.89901 | 151.12933 | 7114 ft | 263 kts | 189° |
| 2026-04-22 17:22 | -33.93457 | 151.11903 | 6641 ft | 259 kts | 189° |
| 2026-04-22 17:23 | -33.95231 | 151.11394 | 6403 ft | 259 kts | 189° |
| 2026-04-22 17:23 | -33.98680 | 151.10396 | 5926 ft | 248 kts | 189° |
| 2026-04-22 17:23 | -34.00342 | 151.09914 | 5690 ft | 243 kts | 189° |
| 2026-04-22 17:24 | -34.01991 | 151.09436 | 5445 ft | 238 kts | 189° |
| 2026-04-22 17:24 | -34.03592 | 151.08972 | 5207 ft | 234 kts | 190° |
| 2026-04-22 17:24 | -34.05172 | 151.08519 | 4964 ft | 231 kts | 190° |
| 2026-04-22 17:24 | -34.06721 | 151.08075 | 4723 ft | 227 kts | 190° |
| 2026-04-22 17:25 | -34.08265 | 151.07781 | 4480 ft | 222 kts | 178° |
| 2026-04-22 17:25 | -34.09767 | 151.08040 | 4250 ft | 216 kts | 164° |
| 2026-04-22 17:25 | -34.11225 | 151.08495 | 4051 ft | 212 kts | 163° |
| 2026-04-22 17:25 | -34.12652 | 151.08911 | 3866 ft | 208 kts | 165° |
| 2026-04-22 17:26 | -34.14056 | 151.09286 | 3691 ft | 204 kts | 165° |
| 2026-04-22 17:26 | -34.15428 | 151.09645 | 3516 ft | 200 kts | 165° |
| 2026-04-22 17:26 | -34.16783 | 151.09998 | 3341 ft | 196 kts | 166° |
| 2026-04-22 17:26 | -34.18106 | 151.10341 | 3171 ft | 192 kts | 166° |
| 2026-04-22 17:27 | -34.18962 | 151.10562 | 3069 ft | 186 kts | 166° |
| 2026-04-22 17:27 | -34.20605 | 151.10986 | 2960 ft | 176 kts | 166° |
| 2026-04-22 17:27 | -34.21817 | 151.11325 | 2952 ft | 176 kts | 158° |
| 2026-04-22 17:27 | -34.22754 | 151.12239 | 2955 ft | 177 kts | 120° |
| 2026-04-22 17:28 | -34.23015 | 151.13695 | 2963 ft | 179 kts | 92° |
| 2026-04-22 17:28 | -34.23016 | 151.15192 | 2956 ft | 179 kts | 91° |
| 2026-04-22 17:28 | -34.22728 | 151.16641 | 2957 ft | 182 kts | 62° |
| 2026-04-22 17:28 | -34.21918 | 151.17854 | 2963 ft | 185 kts | 51° |
| 2026-04-22 17:29 | -34.21040 | 151.18986 | 2960 ft | 183 kts | 46° |
| 2026-04-22 17:29 | -34.20061 | 151.19987 | 2959 ft | 185 kts | 43° |
| 2026-04-22 17:29 | -34.19062 | 151.20985 | 2955 ft | 185 kts | 43° |
| 2026-04-22 17:29 | -34.18066 | 151.21988 | 2954 ft | 186 kts | 43° |
| 2026-04-22 17:30 | -34.17033 | 151.22902 | 2946 ft | 182 kts | 28° |
| 2026-04-22 17:30 | -34.15812 | 151.23090 | 2941 ft | 171 kts | 353° |
| 2026-04-22 17:30 | -34.14658 | 151.22769 | 2962 ft | 175 kts | 349° |
| 2026-04-22 17:30 | -34.13476 | 151.22458 | 2953 ft | 173 kts | 351° |
| 2026-04-22 17:31 | -34.12269 | 151.22156 | 2957 ft | 175 kts | 350° |
| 2026-04-22 17:31 | -34.11076 | 151.21849 | 2940 ft | 175 kts | 350° |
| 2026-04-22 17:31 | -34.09872 | 151.21536 | 2745 ft | 177 kts | 350° |
| 2026-04-22 17:31 | -34.08671 | 151.21223 | 2492 ft | 178 kts | 350° |
| 2026-04-22 17:32 | -34.07467 | 151.20914 | 2252 ft | 172 kts | 350° |
| 2026-04-22 17:32 | -34.06310 | 151.20613 | 2002 ft | 163 kts | 350° |
| 2026-04-22 17:32 | -34.05228 | 151.20332 | 1793 ft | 154 kts | 350° |
| 2026-04-22 17:32 | -34.04205 | 151.20068 | 1605 ft | 149 kts | 351° |
| 2026-04-22 17:33 | -34.03529 | 151.19888 | 1459 ft | 147 kts | 349° |
| 2026-04-22 17:33 | -34.02206 | 151.19531 | 1182 ft | 144 kts | 349° |
| 2026-04-22 17:33 | -34.01246 | 151.19281 | 1009 ft | 140 kts | 350° |
| 2026-04-22 17:33 | -34.00281 | 151.19040 | 824 ft | 139 kts | 349° |
| 2026-04-22 17:34 | -33.99337 | 151.18810 | 628 ft | 137 kts | 349° |
| 2026-04-22 17:34 | -33.98413 | 151.18568 | 455 ft | 133 kts | 348° |
| 2026-04-22 17:34 | -33.97498 | 151.18337 | 265 ft | 132 kts | 348° |
| 2026-04-22 17:34 | -33.96607 | 151.18105 | 108 ft | 129 kts | 348° |
| 2026-04-22 17:35 | -33.95740 | 151.17889 | 16 ft | 119 kts | 349° |
| 2026-04-22 17:35 | -33.95110 | 151.17720 | 18 ft | 59 kts | 348° |
| 2026-04-22 17:35 | -33.94830 | 151.17658 | 21 ft | 32 kts | 353° |
| 2026-04-22 17:35 | -33.94640 | 151.17644 | 24 ft | 24 kts | 11° |
| 2026-04-22 17:36 | -33.94521 | 151.17682 | 25 ft | 14 kts | 16° |
| 2026-04-22 17:36 | -33.94426 | 151.17720 | 22 ft | 13 kts | 19° |
| 2026-04-22 17:36 | -33.94350 | 151.17738 | 20 ft | 10 kts | 357° |
| 2026-04-22 17:36 | -33.94276 | 151.17720 | 18 ft | 13 kts | 345° |
| 2026-04-22 17:37 | -33.94186 | 151.17690 | 16 ft | 13 kts | 346° |
| 2026-04-22 17:37 | -33.94061 | 151.17653 | 11 ft | 23 kts | 347° |
| 2026-04-22 17:37 | -33.93906 | 151.17612 | 8 ft | 21 kts | 348° |
| 2026-04-22 17:37 | -33.93771 | 151.17578 | 8 ft | 18 kts | 349° |
| 2026-04-22 17:38 | -33.93655 | 151.17545 | 8 ft | 15 kts | 347° |
| 2026-04-22 17:38 | -33.93559 | 151.17522 | 8 ft | 12 kts | 349° |
| 2026-04-22 17:38 | -33.93480 | 151.17503 | 9 ft | 12 kts | 353° |
| 2026-04-22 17:38 | -33.93379 | 151.17503 | 13 ft | 12 kts | 350° |
| 2026-04-22 17:39 | -33.93288 | 151.17479 | 16 ft | 15 kts | 347° |
| 2026-04-22 17:39 | -33.93199 | 151.17456 | 18 ft | 10 kts | 349° |
| 2026-04-22 17:39 | -33.93041 | 151.17415 | 21 ft | 8 kts | 349° |
| 2026-04-22 17:40 | -33.93000 | 151.17421 | 21 ft | 4 kts | 42° |
| 2026-04-22 17:40 | -33.92986 | 151.17470 | 21 ft | 7 kts | 93° |
| 2026-04-22 17:40 | -33.92997 | 151.17543 | 21 ft | 15 kts | 101° |
| 2026-04-22 17:40 | -33.93013 | 151.17639 | 21 ft | 8 kts | 102° |
| 2026-04-22 17:41 | -33.93024 | 151.17676 | 21 ft | 2 kts | 136° |
| 2026-04-22 17:41 | -33.93057 | 151.17679 | 21 ft | 6 kts | 186° |
| 2026-04-22 17:41 | -33.93098 | 151.17671 | 20 ft | 0 kts | 187° |